Time;durP1;ratioP1;P1;durP2;ratioP2;P2;SDS_P1;SDS_P2;PMS_P1;PMS_P2;Temp;Humidity;BMP_temperature;BMP_pressure;BME280_temperature;BME280_humidity;BME280_pressure;Samples;Min_cycle;Max_cycle;Signal;HPM_P1;HPM_P2
2023/05/25 00:01:34;;;;;;;8.17;6.40;;;13.30;84.20;;;;;;5093883;28;20462;-56
2023/05/25 00:04:01;;;;;;;8.97;5.93;;;13.30;84.10;;;;;;5093473;28;20999;-56
2023/05/25 00:06:28;;;;;;;8.03;5.93;;;13.20;84.20;;;;;;5093366;28;20467;-56
2023/05/25 00:08:56;;;;;;;6.83;5.60;;;13.20;84.90;;;;;;5093674;28;20463;-56
2023/05/25 00:11:23;;;;;;;7.80;5.20;;;13.20;85.30;;;;;;5093271;28;20562;-57
2023/05/25 00:13:50;;;;;;;5.57;5.00;;;13.20;85.40;;;;;;5093296;28;20999;-57
2023/05/25 00:16:18;;;;;;;9.10;5.80;;;13.20;85.40;;;;;;5093593;28;20479;-57
2023/05/25 00:18:47;;;;;;;7.97;5.57;;;13.00;85.00;;;;;;5093279;28;20990;-57
2023/05/25 00:21:14;;;;;;;6.20;5.60;;;13.00;85.40;;;;;;5093462;28;20476;-57
2023/05/25 00:23:41;;;;;;;8.50;6.33;;;13.00;85.80;;;;;;5094031;28;20447;-57
2023/05/25 00:26:07;;;;;;;6.10;5.50;;;13.00;86.00;;;;;;5093441;28;20888;-57
2023/05/25 00:28:34;;;;;;;8.70;6.10;;;13.00;85.40;;;;;;5093561;28;20451;-57
2023/05/25 00:31:01;;;;;;;7.03;5.17;;;13.00;85.30;;;;;;5093507;28;20450;-57
2023/05/25 00:33:29;;;;;;;10.57;7.37;;;13.00;85.40;;;;;;5093357;28;20531;-57
2023/05/25 00:35:57;;;;;;;6.43;5.60;;;13.00;85.60;;;;;;5093287;28;20479;-57
2023/05/25 00:38:24;;;;;;;13.07;6.57;;;13.00;85.30;;;;;;5093329;28;20443;-57
2023/05/25 00:40:55;;;;;;;6.27;5.67;;;12.90;85.00;;;;;;5093354;28;20561;-57
2023/05/25 00:43:21;;;;;;;7.30;5.90;;;12.90;85.00;;;;;;5093744;28;20801;-57
2023/05/25 00:45:50;;;;;;;7.90;6.87;;;12.80;85.10;;;;;;5093516;28;20478;-57
2023/05/25 00:48:17;;;;;;;9.50;5.63;;;12.90;85.60;;;;;;5096891;28;20953;-57
2023/05/25 00:50:46;;;;;;;9.47;5.90;;;12.90;85.40;;;;;;5096568;28;20440;-57
2023/05/25 00:53:14;;;;;;;11.23;7.20;;;12.90;85.50;;;;;;5094189;28;20456;-57
2023/05/25 00:55:45;;;;;;;8.37;5.63;;;12.90;85.60;;;;;;5094354;28;20502;-57
2023/05/25 00:58:14;;;;;;;8.07;6.20;;;12.90;85.60;;;;;;5093346;28;20941;-57
2023/05/25 01:00:42;;;;;;;13.97;9.60;;;12.90;85.30;;;;;;5093793;28;20480;-57
2023/05/25 01:03:16;;;;;;;7.37;6.57;;;12.80;85.00;;;;;;5097148;28;20487;-57
2023/05/25 01:05:47;;;;;;;9.83;6.77;;;12.70;85.00;;;;;;5097044;28;21056;-57
2023/05/25 01:08:18;;;;;;;6.17;5.50;;;12.70;85.50;;;;;;5097368;28;20432;-57
2023/05/25 01:10:48;;;;;;;8.17;6.40;;;12.70;85.70;;;;;;5097049;28;20458;-57
2023/05/25 01:13:18;;;;;;;7.40;5.37;;;12.60;85.70;;;;;;5097110;28;20432;-57
2023/05/25 01:15:45;;;;;;;6.80;5.90;;;12.60;85.40;;;;;;5097336;28;20547;-57
2023/05/25 01:18:14;;;;;;;11.47;6.10;;;12.60;85.60;;;;;;5097081;28;20530;-57
2023/05/25 01:20:53;;;;;;;6.97;5.50;;;12.60;85.60;;;;;;5096803;28;20483;-57
2023/05/25 01:23:27;;;;;;;10.27;5.93;;;12.50;85.20;;;;;;5096617;28;20932;-57
2023/05/25 01:25:58;;;;;;;7.20;5.40;;;12.40;85.10;;;;;;5096629;28;20867;-57
2023/05/25 01:28:30;;;;;;;8.83;5.40;;;12.30;85.40;;;;;;5096748;28;20428;-57
2023/05/25 01:30:58;;;;;;;5.93;5.40;;;12.20;85.50;;;;;;5096656;28;20775;-57
2023/05/25 01:33:26;;;;;;;7.60;5.27;;;12.20;85.80;;;;;;5096709;28;20451;-57
2023/05/25 01:35:54;;;;;;;6.23;5.63;;;12.30;86.50;;;;;;5096665;28;20471;-57
2023/05/25 01:38:21;;;;;;;7.83;5.60;;;12.30;86.60;;;;;;5096597;28;20448;-57
2023/05/25 01:40:48;;;;;;;8.10;6.13;;;12.30;86.70;;;;;;5096405;28;20570;-57
2023/05/25 01:43:15;;;;;;;10.03;5.90;;;12.40;86.90;;;;;;5096120;28;20956;-57
2023/05/25 01:45:42;;;;;;;9.17;5.77;;;12.40;86.60;;;;;;5096304;28;20471;-57
2023/05/25 01:48:15;;;;;;;10.20;6.90;;;12.40;87.30;;;;;;5096441;28;20451;-57
2023/05/25 01:50:51;;;;;;;9.63;5.60;;;12.40;86.30;;;;;;5096322;28;20477;-57
2023/05/25 01:53:23;;;;;;;6.50;5.33;;;12.40;86.40;;;;;;5096415;28;20481;-57
2023/05/25 01:55:56;;;;;;;6.87;5.50;;;12.30;86.20;;;;;;5096238;28;20532;-57
2023/05/25 01:58:25;;;;;;;7.70;5.90;;;12.30;86.20;;;;;;5096178;28;20436;-57
2023/05/25 02:00:54;;;;;;;7.13;5.43;;;12.30;86.50;;;;;;5095692;28;20908;-57
2023/05/25 02:03:21;;;;;;;8.53;5.90;;;12.10;86.40;;;;;;5096025;28;20453;-57
2023/05/25 02:05:48;;;;;;;9.20;5.63;;;12.10;86.50;;;;;;5096012;28;20479;-57
2023/05/25 02:08:15;;;;;;;8.17;5.53;;;12.00;86.20;;;;;;5096007;28;20440;-57
2023/05/25 02:10:43;;;;;;;6.07;5.47;;;11.90;86.10;;;;;;5095815;28;20829;-57
2023/05/25 02:13:09;;;;;;;7.80;4.70;;;11.80;86.00;;;;;;5094891;28;20478;-57
2023/05/25 02:15:36;;;;;;;6.63;5.67;;;11.90;86.20;;;;;;5095787;28;20467;-57
2023/05/25 02:18:04;;;;;;;6.23;5.60;;;11.80;86.20;;;;;;5095830;28;20467;-57
2023/05/25 02:20:31;;;;;;;8.10;5.53;;;11.80;86.10;;;;;;5095712;28;20483;-57
2023/05/25 02:22:58;;;;;;;8.70;5.80;;;11.80;86.50;;;;;;5095340;28;21021;-57
2023/05/25 02:25:24;;;;;;;6.53;5.70;;;11.80;86.80;;;;;;5095267;28;20817;-57
2023/05/25 02:27:53;;;;;;;6.93;5.80;;;11.80;86.50;;;;;;5095334;28;20547;-57
2023/05/25 02:30:19;;;;;;;9.70;5.77;;;11.80;86.60;;;;;;5095502;28;20439;-57
2023/05/25 02:32:46;;;;;;;6.33;5.73;;;11.80;86.70;;;;;;5095529;28;20448;-57
2023/05/25 02:35:13;;;;;;;6.23;5.63;;;11.70;86.70;;;;;;5095414;28;20468;-57
2023/05/25 02:37:40;;;;;;;6.97;4.83;;;11.70;87.00;;;;;;5095435;28;20454;-57
2023/05/25 02:40:09;;;;;;;7.20;6.33;;;11.70;87.20;;;;;;5095358;28;20447;-57
2023/05/25 02:42:36;;;;;;;7.60;5.50;;;11.70;87.70;;;;;;5095309;28;20459;-57
2023/05/25 02:45:05;;;;;;;6.10;5.50;;;11.70;87.30;;;;;;5095217;28;20467;-57
2023/05/25 02:47:32;;;;;;;8.23;5.40;;;11.70;87.10;;;;;;5095478;28;20521;-57
2023/05/25 02:49:58;;;;;;;7.37;5.13;;;11.60;87.20;;;;;;5095222;28;20443;-57
2023/05/25 02:52:25;;;;;;;16.03;7.00;;;11.70;87.90;;;;;;5095108;28;20481;-57
2023/05/25 02:54:52;;;;;;;9.20;6.73;;;11.70;88.50;;;;;;5095062;28;20462;-57
2023/05/25 02:57:18;;;;;;;8.27;5.80;;;11.70;88.90;;;;;;5095329;28;20444;-57
2023/05/25 02:59:45;;;;;;;15.23;6.33;;;11.80;89.00;;;;;;5095236;28;20444;-57
2023/05/25 03:02:13;;;;;;;10.83;6.63;;;11.80;89.20;;;;;;5094817;28;20490;-57
2023/05/25 03:04:40;;;;;;;8.90;5.90;;;11.80;89.10;;;;;;5094808;28;20443;-57
2023/05/25 03:07:07;;;;;;;10.87;7.37;;;11.80;89.00;;;;;;5094795;28;20811;-57
2023/05/25 03:09:34;;;;;;;6.93;5.40;;;11.80;88.70;;;;;;5094487;28;20943;-57
2023/05/25 03:12:01;;;;;;;11.20;6.73;;;11.80;88.20;;;;;;5094538;28;20456;-57
2023/05/25 03:14:28;;;;;;;10.63;6.50;;;11.70;88.20;;;;;;5094761;28;20892;-58
2023/05/25 03:16:54;;;;;;;9.20;6.57;;;11.70;88.40;;;;;;5094579;28;20475;-58
2023/05/25 03:19:22;;;;;;;9.67;6.33;;;11.60;88.20;;;;;;5094640;28;20483;-58
2023/05/25 03:21:49;;;;;;;7.97;7.00;;;11.60;88.40;;;;;;5094750;28;20476;-58
2023/05/25 03:24:16;;;;;;;8.80;7.30;;;11.60;88.80;;;;;;5094063;28;20949;-58
2023/05/25 03:26:43;;;;;;;8.83;6.90;;;11.60;89.00;;;;;;5094406;28;20479;-58
2023/05/25 03:29:09;;;;;;;9.50;6.70;;;11.60;89.10;;;;;;5094368;28;20505;-58
2023/05/25 03:31:36;;;;;;;7.87;6.70;;;11.60;88.80;;;;;;5094330;28;20470;-58
2023/05/25 03:34:03;;;;;;;9.70;6.70;;;11.60;88.70;;;;;;5094339;28;20844;-58
2023/05/25 03:36:32;;;;;;;10.47;6.53;;;11.50;89.00;;;;;;5094205;28;20573;-58
2023/05/25 03:38:59;;;;;;;8.50;6.83;;;11.50;89.20;;;;;;5094291;28;20513;-58
2023/05/25 03:41:26;;;;;;;7.73;6.67;;;11.50;89.00;;;;;;5094075;28;20849;-58
2023/05/25 03:43:53;;;;;;;7.70;6.90;;;11.50;89.40;;;;;;5094256;28;20512;-58
2023/05/25 03:46:20;;;;;;;7.37;6.57;;;11.50;88.70;;;;;;5094194;28;20474;-58
2023/05/25 03:48:46;;;;;;;10.73;6.53;;;11.40;88.60;;;;;;5095227;28;20768;-58
2023/05/25 03:51:13;;;;;;;10.13;6.97;;;11.30;88.40;;;;;;5094064;28;20447;-58
2023/05/25 03:53:41;;;;;;;10.70;7.37;;;11.30;88.50;;;;;;5094227;28;20486;-58
2023/05/25 03:56:08;;;;;;;7.67;6.87;;;11.30;88.90;;;;;;5094367;28;20498;-58
2023/05/25 03:58:35;;;;;;;9.20;5.90;;;11.30;88.90;;;;;;5094347;28;20442;-58
2023/05/25 04:01:01;;;;;;;7.93;6.43;;;11.20;88.70;;;;;;5093954;28;20483;-58
2023/05/25 04:03:31;;;;;;;9.63;5.80;;;11.20;88.70;;;;;;5093707;28;20963;-58
2023/05/25 04:05:59;;;;;;;8.93;6.47;;;11.20;88.80;;;;;;5093905;28;20836;-58
2023/05/25 04:08:27;;;;;;;11.07;6.67;;;11.20;89.10;;;;;;5093789;28;20452;-58
2023/05/25 04:10:56;;;;;;;8.37;6.50;;;11.20;89.30;;;;;;5093687;28;20505;-58
2023/05/25 04:13:22;;;;;;;10.50;6.80;;;11.10;88.90;;;;;;5093699;28;20447;-58
2023/05/25 04:15:50;;;;;;;10.30;6.03;;;11.10;89.00;;;;;;5094083;28;20460;-58
2023/05/25 04:18:16;;;;;;;8.57;5.77;;;11.00;89.20;;;;;;5093670;28;20479;-58
2023/05/25 04:20:45;;;;;;;7.30;6.27;;;11.00;89.40;;;;;;5093585;28;20458;-58
2023/05/25 04:23:12;;;;;;;11.77;7.13;;;11.00;89.60;;;;;;5093130;28;20952;-58
2023/05/25 04:25:41;;;;;;;8.10;6.57;;;11.00;90.10;;;;;;5093715;28;20476;-58
2023/05/25 04:28:09;;;;;;;12.77;7.77;;;11.10;90.30;;;;;;5093542;28;20447;-58
2023/05/25 04:30:35;;;;;;;13.07;7.03;;;11.10;90.40;;;;;;5093427;28;20818;-58
2023/05/25 04:33:02;;;;;;;10.80;6.77;;;11.10;90.60;;;;;;5093606;28;20472;-58
2023/05/25 04:35:30;;;;;;;10.17;7.03;;;11.20;90.80;;;;;;5093407;28;20463;-58
2023/05/25 04:37:59;;;;;;;11.13;6.83;;;11.20;90.90;;;;;;5093698;28;20451;-58
2023/05/25 04:40:26;;;;;;;8.43;7.63;;;11.30;90.90;;;;;;5093386;28;20851;-58
2023/05/25 04:42:54;;;;;;;9.03;6.60;;;11.30;90.90;;;;;;5093224;28;20488;-58
2023/05/25 04:45:22;;;;;;;15.07;6.80;;;11.30;91.10;;;;;;5092949;28;20973;-58
2023/05/25 04:47:49;;;;;;;11.20;7.40;;;11.40;91.40;;;;;;5093250;28;20450;-58
2023/05/25 04:50:16;;;;;;;8.80;6.90;;;11.40;91.70;;;;;;5093249;28;20445;-58
2023/05/25 04:52:43;;;;;;;13.80;8.20;;;11.50;91.80;;;;;;5093230;28;20810;-58
2023/05/25 04:55:10;;;;;;;11.33;7.60;;;11.60;92.00;;;;;;5092609;28;20897;-58
2023/05/25 04:57:36;;;;;;;10.37;7.97;;;11.70;92.10;;;;;;5093296;28;20444;-58
2023/05/25 05:00:05;;;;;;;11.30;8.00;;;11.70;92.00;;;;;;5093266;28;20448;-58
2023/05/25 05:02:34;;;;;;;11.43;8.67;;;11.70;92.10;;;;;;5093025;28;20484;-58
2023/05/25 05:05:00;;;;;;;16.57;9.03;;;11.80;92.30;;;;;;5093103;28;20475;-58
2023/05/25 05:07:27;;;;;;;10.63;8.03;;;11.90;92.60;;;;;;5093118;28;20451;-58
2023/05/25 05:09:54;;;;;;;13.67;9.10;;;11.90;92.70;;;;;;5093099;28;20454;-58
2023/05/25 05:12:21;;;;;;;12.30;8.80;;;12.00;92.90;;;;;;5092724;28;20530;-58
2023/05/25 05:14:47;;;;;;;15.57;9.37;;;12.00;93.20;;;;;;5092914;28;20452;-58
2023/05/25 05:17:14;;;;;;;16.83;10.17;;;12.10;93.00;;;;;;5092732;28;20937;-58
2023/05/25 05:19:42;;;;;;;15.20;13.03;;;12.10;93.30;;;;;;5092944;28;20440;-58
2023/05/25 05:22:12;;;;;;;14.90;11.40;;;12.10;93.50;;;;;;5092860;28;20476;-58
2023/05/25 05:24:38;;;;;;;18.40;10.90;;;12.20;93.80;;;;;;5092572;28;20854;-58
2023/05/25 05:27:05;;;;;;;12.67;10.00;;;12.20;94.10;;;;;;5092854;28;20860;-58
2023/05/25 05:29:33;;;;;;;10.83;9.47;;;12.30;94.40;;;;;;5092850;28;20443;-58
2023/05/25 05:32:00;;;;;;;13.47;10.30;;;12.30;94.70;;;;;;5092878;28;20450;-58
2023/05/25 05:34:26;;;;;;;14.47;9.80;;;12.40;94.80;;;;;;5096303;28;20443;-58
2023/05/25 05:36:54;;;;;;;15.20;9.87;;;12.40;94.80;;;;;;5112652;28;20845;-58
2023/05/25 05:39:21;;;;;;;13.10;10.03;;;12.50;95.00;;;;;;5098122;28;20443;-58
2023/05/25 05:41:48;;;;;;;19.30;10.10;;;12.60;95.10;;;;;;5092696;28;20490;-56
2023/05/25 05:44:15;;;;;;;14.50;9.83;;;12.70;95.10;;;;;;5092827;28;20448;-56
2023/05/25 05:46:41;;;;;;;20.33;11.23;;;12.70;95.00;;;;;;5092785;28;20563;-57
2023/05/25 05:49:08;;;;;;;16.50;10.93;;;12.80;95.10;;;;;;5094517;28;20933;-57
2023/05/25 05:51:35;;;;;;;12.63;10.33;;;12.90;95.10;;;;;;5096422;28;20446;-57
2023/05/25 05:54:03;;;;;;;16.00;10.57;;;13.00;95.10;;;;;;5095994;28;20812;-57
2023/05/25 05:56:30;;;;;;;16.47;10.40;;;13.10;95.00;;;;;;5096254;28;20474;-57
2023/05/25 05:58:57;;;;;;;14.93;9.70;;;13.20;95.00;;;;;;5096299;28;20459;-57
2023/05/25 06:01:24;;;;;;;12.33;9.57;;;13.30;94.90;;;;;;5095862;28;20475;-57
2023/05/25 06:03:53;;;;;;;13.10;10.17;;;13.40;94.80;;;;;;5096182;28;20455;-57
2023/05/25 06:06:20;;;;;;;11.30;9.20;;;13.50;94.70;;;;;;5104019;28;20467;-56
2023/05/25 06:08:47;;;;;;;11.07;9.30;;;13.70;94.60;;;;;;5100139;28;20505;-57
2023/05/25 06:11:15;;;;;;;12.50;9.80;;;13.80;94.50;;;;;;5095455;28;20564;-57
2023/05/25 06:13:41;;;;;;;10.67;9.03;;;13.80;94.40;;;;;;5096099;28;20452;-57
2023/05/25 06:16:08;;;;;;;14.10;10.10;;;13.90;94.30;;;;;;5095863;28;20473;-58
2023/05/25 06:18:35;;;;;;;13.80;9.27;;;14.10;94.20;;;;;;5095831;28;20452;-57
2023/05/25 06:21:02;;;;;;;16.83;9.77;;;14.20;94.10;;;;;;5097011;28;20443;-57
2023/05/25 06:23:29;;;;;;;16.90;10.10;;;14.20;93.90;;;;;;5097072;28;20855;-57
2023/05/25 06:25:55;;;;;;;12.27;9.83;;;14.40;93.80;;;;;;5096772;28;20471;-57
2023/05/25 06:28:23;;;;;;;13.83;9.73;;;14.50;93.50;;;;;;5095526;28;20447;-57
2023/05/25 06:30:50;;;;;;;11.20;9.50;;;14.60;93.40;;;;;;5095547;28;20447;-57
2023/05/25 06:33:17;;;;;;;16.73;10.33;;;14.70;93.20;;;;;;5095558;28;20443;-57
2023/05/25 06:35:44;;;;;;;17.40;10.77;;;14.80;92.60;;;;;;5095400;28;20509;-57
2023/05/25 06:38:11;;;;;;;15.73;9.00;;;15.00;92.40;;;;;;5095676;28;20448;-57
2023/05/25 06:40:38;;;;;;;14.00;9.57;;;15.10;92.20;;;;;;5095389;28;20560;-57
2023/05/25 06:43:05;;;;;;;12.53;8.87;;;15.20;92.00;;;;;;5095190;28;20487;-57
2023/05/25 06:45:33;;;;;;;16.03;9.37;;;15.40;91.60;;;;;;5095329;28;20468;-58
2023/05/25 06:48:00;;;;;;;17.77;10.80;;;15.50;91.50;;;;;;5095076;28;20452;-57
2023/05/25 06:50:26;;;;;;;12.20;8.70;;;15.60;91.30;;;;;;5099060;28;20849;-57
2023/05/25 06:52:53;;;;;;;21.87;10.90;;;15.70;90.90;;;;;;5100371;28;20451;-58
2023/05/25 06:55:20;;;;;;;15.80;10.60;;;15.90;90.70;;;;;;5095125;28;20464;-57
2023/05/25 06:57:46;;;;;;;11.77;9.33;;;16.00;90.50;;;;;;5095142;28;20443;-58
2023/05/25 07:00:15;;;;;;;11.63;9.13;;;16.10;90.40;;;;;;5094545;28;20443;-57
2023/05/25 07:02:43;;;;;;;15.03;10.13;;;16.30;89.10;;;;;;5094867;28;20480;-57
2023/05/25 07:05:10;;;;;;;13.80;10.07;;;16.40;88.90;;;;;;5094850;28;20472;-58
2023/05/25 07:07:36;;;;;;;12.03;7.90;;;16.50;88.00;;;;;;5094738;28;20443;-58
2023/05/25 07:10:04;;;;;;;13.10;8.57;;;16.60;87.20;;;;;;5094677;28;20456;-57
2023/05/25 07:12:30;;;;;;;15.40;9.00;;;16.80;87.10;;;;;;5094335;28;20501;-57
2023/05/25 07:14:57;;;;;;;18.93;9.43;;;16.90;86.00;;;;;;5094663;28;20520;-57
2023/05/25 07:17:25;;;;;;;15.67;9.10;;;17.10;84.70;;;;;;5094617;28;20448;-57
2023/05/25 07:19:53;;;;;;;13.07;8.50;;;17.20;85.10;;;;;;5094575;28;20497;-57
2023/05/25 07:22:22;;;;;;;13.73;7.93;;;17.40;84.60;;;;;;5094645;28;20521;-57
2023/05/25 07:24:49;;;;;;;13.87;8.70;;;17.60;84.20;;;;;;5094509;28;20459;-57
2023/05/25 07:27:16;;;;;;;13.83;8.17;;;17.80;82.90;;;;;;5094116;28;20922;-57
2023/05/25 07:29:42;;;;;;;9.70;8.27;;;18.00;81.90;;;;;;5094451;28;20482;-57
2023/05/25 07:32:09;;;;;;;10.63;8.20;;;18.30;81.40;;;;;;5094355;28;20440;-57
2023/05/25 07:34:36;;;;;;;12.77;8.27;;;18.40;79.80;;;;;;5094206;28;20470;-57
2023/05/25 07:37:05;;;;;;;12.87;7.73;;;18.60;79.40;;;;;;5094377;28;20444;-57
2023/05/25 07:39:33;;;;;;;13.30;8.40;;;18.80;78.30;;;;;;5094318;28;20521;-56
2023/05/25 07:42:00;;;;;;;11.37;7.83;;;19.00;76.80;;;;;;5094195;28;20859;-56
2023/05/25 07:44:28;;;;;;;15.77;9.10;;;19.20;76.10;;;;;;5094197;28;20487;-56
2023/05/25 07:46:54;;;;;;;10.17;7.43;;;19.40;75.90;;;;;;5093755;28;20873;-56
2023/05/25 07:49:21;;;;;;;10.00;6.50;;;19.60;75.20;;;;;;5093776;28;20459;-56
2023/05/25 07:51:48;;;;;;;12.50;7.33;;;19.80;73.60;;;;;;5093795;28;20961;-56
2023/05/25 07:54:16;;;;;;;13.43;7.60;;;20.00;72.20;;;;;;5094090;28;20443;-56
2023/05/25 07:56:42;;;;;;;12.50;7.43;;;20.20;71.60;;;;;;5093912;28;20467;-56
2023/05/25 07:59:09;;;;;;;14.63;9.80;;;20.40;71.30;;;;;;5093529;28;20814;-57
2023/05/25 08:01:37;;;;;;;12.77;7.83;;;20.60;70.20;;;;;;5093909;28;20531;-57
2023/05/25 08:04:04;;;;;;;12.47;7.50;;;20.80;69.10;;;;;;5093852;28;20448;-57
2023/05/25 08:06:33;;;;;;;14.70;7.43;;;21.00;68.00;;;;;;5094399;28;20989;-57
2023/05/25 08:08:59;;;;;;;12.07;8.30;;;21.20;66.90;;;;;;5093828;28;20444;-57
2023/05/25 08:11:27;;;;;;;11.10;6.63;;;21.40;66.30;;;;;;5092655;28;20451;-57
2023/05/25 08:13:54;;;;;;;11.83;7.20;;;21.60;64.50;;;;;;5093447;28;20972;-57
2023/05/25 08:16:21;;;;;;;9.80;7.87;;;21.80;64.30;;;;;;5093566;28;20825;-57
2023/05/25 08:18:48;;;;;;;8.77;6.97;;;22.00;62.90;;;;;;5093280;28;20443;-57
2023/05/25 08:21:15;;;;;;;10.47;6.27;;;22.20;61.90;;;;;;5093580;28;20439;-57
2023/05/25 08:23:42;;;;;;;12.40;6.83;;;22.40;60.20;;;;;;5093451;28;20482;-57
2023/05/25 08:26:08;;;;;;;9.20;7.07;;;22.60;59.60;;;;;;5094069;28;20494;-57
2023/05/25 08:28:37;;;;;;;13.43;6.60;;;22.80;58.80;;;;;;5093110;28;20803;-57
2023/05/25 08:31:04;;;;;;;12.00;6.20;;;23.00;58.40;;;;;;5093520;28;20863;-57
2023/05/25 08:33:30;;;;;;;9.07;5.47;;;23.20;57.90;;;;;;5093417;28;20448;-57
2023/05/25 08:35:57;;;;;;;9.80;6.33;;;23.40;56.50;;;;;;5100391;28;20999;-57
2023/05/25 08:38:24;;;;;;;9.63;6.07;;;23.40;55.70;;;;;;5113698;28;20443;-57
2023/05/25 08:41:02;;;;;;;15.50;6.67;;;23.40;55.00;;;;;;5113778;28;20504;-57
2023/05/25 08:43:29;;;;;;;12.10;6.50;;;23.40;54.90;;;;;;5113174;28;20819;-57
2023/05/25 08:46:02;;;;;;;12.40;6.93;;;23.30;54.70;;;;;;5113316;28;20462;-57
2023/05/25 08:48:32;;;;;;;7.00;4.53;;;23.30;54.50;;;;;;5114115;28;20466;-57
2023/05/25 08:51:01;;;;;;;11.83;5.53;;;23.20;54.30;;;;;;5113629;28;20447;-57
2023/05/25 08:53:33;;;;;;;11.23;4.90;;;23.10;54.30;;;;;;5113649;28;20442;-57
2023/05/25 08:56:00;;;;;;;12.63;5.67;;;23.00;54.50;;;;;;5113252;28;20992;-57
2023/05/25 08:58:32;;;;;;;10.50;6.70;;;22.90;54.80;;;;;;5113209;28;20817;-57
2023/05/25 09:01:06;;;;;;;11.20;6.00;;;22.90;55.30;;;;;;5113608;28;20431;-57
2023/05/25 09:03:35;;;;;;;6.77;4.53;;;22.90;55.00;;;;;;5113211;28;20463;-57
2023/05/25 09:06:02;;;;;;;9.37;5.80;;;23.00;54.50;;;;;;5113426;28;20467;-57
2023/05/25 09:08:29;;;;;;;6.23;4.30;;;23.10;54.70;;;;;;5113417;28;20451;-57
2023/05/25 09:10:56;;;;;;;6.60;5.10;;;23.20;54.40;;;;;;5112931;28;20467;-57
2023/05/25 09:13:23;;;;;;;10.10;6.00;;;23.40;53.80;;;;;;5113436;28;20545;-57
2023/05/25 09:15:50;;;;;;;7.87;5.73;;;23.60;53.80;;;;;;5113003;28;20996;-57
2023/05/25 09:18:19;;;;;;;14.60;7.50;;;24.00;53.90;;;;;;5113448;28;20447;-57
2023/05/25 09:20:45;;;;;;;9.83;6.00;;;24.40;52.80;;;;;;5113268;28;20449;-57
2023/05/25 09:23:13;;;;;;;9.67;6.67;;;24.80;51.50;;;;;;5115153;28;20487;-57
2023/05/25 09:25:41;;;;;;;10.37;7.10;;;25.10;51.30;;;;;;5117115;28;20473;-57
2023/05/25 09:28:09;;;;;;;9.90;9.00;;;25.40;50.60;;;;;;5117268;28;20503;-57
2023/05/25 09:30:36;;;;;;;13.30;9.90;;;25.70;48.40;;;;;;5117096;28;20545;-57
2023/05/25 09:33:11;;;;;;;16.60;9.20;;;25.70;47.40;;;;;;5117039;28;20442;-57
2023/05/25 09:35:40;;;;;;;12.77;9.40;;;25.60;47.30;;;;;;5117069;28;20465;-57
2023/05/25 09:38:07;;;;;;;8.47;6.70;;;25.60;47.90;;;;;;5117091;28;20450;-57
2023/05/25 09:40:35;;;;;;;12.97;8.10;;;25.70;47.70;;;;;;5117080;28;20442;-57
2023/05/25 09:43:02;;;;;;;8.47;6.07;;;25.70;46.70;;;;;;5116915;28;20523;-57
2023/05/25 09:45:30;;;;;;;11.70;8.50;;;25.80;46.30;;;;;;5117013;28;20470;-58
2023/05/25 09:47:57;;;;;;;8.80;7.57;;;26.00;47.00;;;;;;5104366;28;20456;-57
2023/05/25 09:50:24;;;;;;;10.40;8.00;;;26.20;46.70;;;;;;5116922;28;20788;-57
2023/05/25 09:52:58;;;;;;;10.40;7.50;;;26.50;46.40;;;;;;5100425;28;20443;-57
2023/05/25 09:55:25;;;;;;;9.07;6.93;;;26.70;45.90;;;;;;5100237;28;20462;-57
2023/05/25 09:57:54;;;;;;;11.07;6.53;;;27.00;45.10;;;;;;5109355;28;20476;-57
2023/05/25 10:00:21;;;;;;;10.80;7.43;;;27.40;44.40;;;;;;5106308;28;20466;-58
2023/05/25 10:02:48;;;;;;;12.03;8.27;;;27.80;43.90;;;;;;5116169;28;20482;-57
2023/05/25 10:05:15;;;;;;;7.37;6.67;;;28.00;42.40;;;;;;5114547;28;20473;-57
2023/05/25 10:07:43;;;;;;;7.77;7.07;;;28.10;41.70;;;;;;5101396;28;20493;-57
2023/05/25 10:10:15;;;;;;;10.73;8.97;;;28.50;41.70;;;;;;5106908;28;20454;-58
2023/05/25 10:12:43;;;;;;;12.43;8.40;;;28.70;41.40;;;;;;5098948;28;20439;-57
2023/05/25 10:15:12;;;;;;;10.20;9.20;;;28.90;40.30;;;;;;5116179;28;20463;-57
2023/05/25 10:17:43;;;;;;;10.57;8.80;;;29.00;39.50;;;;;;5116225;28;20495;-57
2023/05/25 10:20:11;;;;;;;11.27;8.63;;;28.90;39.00;;;;;;5116263;28;20427;-57
2023/05/25 10:22:43;;;;;;;8.80;7.90;;;29.00;39.10;;;;;;5101668;28;20452;-58
2023/05/25 10:25:17;;;;;;;10.90;6.83;;;29.30;38.80;;;;;;5106269;28;20462;-57
2023/05/25 10:27:48;;;;;;;11.07;8.30;;;29.60;38.70;;;;;;5112797;28;20802;-57
2023/05/25 10:30:15;;;;;;;10.87;7.67;;;30.30;37.40;;;;;;5115964;28;20446;-57
2023/05/25 10:32:44;;;;;;;8.53;6.77;;;30.80;36.50;;;;;;5116026;28;20545;-57
2023/05/25 10:35:12;;;;;;;9.60;8.17;;;31.10;35.10;;;;;;5115024;28;20465;-57
2023/05/25 10:37:40;;;;;;;9.73;8.07;;;31.10;34.40;;;;;;5116501;28;20481;-57
2023/05/25 10:40:08;;;;;;;8.07;7.30;;;31.40;34.50;;;;;;5115797;28;20481;-57
2023/05/25 10:42:38;;;;;;;8.83;6.87;;;32.00;33.50;;;;;;5115375;28;20995;-57
2023/05/25 10:45:06;;;;;;;8.37;7.40;;;32.60;32.30;;;;;;5115400;28;20523;-57
2023/05/25 10:47:33;;;;;;;8.00;7.20;;;33.00;31.00;;;;;;5116284;28;20442;-57
2023/05/25 10:50:01;;;;;;;9.43;7.63;;;33.60;30.30;;;;;;5115691;28;20534;-57
2023/05/25 10:52:29;;;;;;;10.53;6.80;;;34.30;29.40;;;;;;5115630;28;20485;-57
2023/05/25 10:54:57;;;;;;;7.97;7.23;;;34.80;28.60;;;;;;5115534;28;20466;-58
2023/05/25 10:57:24;;;;;;;10.30;9.23;;;35.40;28.00;;;;;;5115493;28;20503;-58
2023/05/25 10:59:58;;;;;;;10.70;9.70;;;35.30;27.10;;;;;;5115174;28;20761;-58
2023/05/25 11:02:27;;;;;;;11.63;9.83;;;34.80;26.70;;;;;;5115496;28;20525;-57
2023/05/25 11:05:32;;;;;;;9.70;8.90;;;34.50;27.50;;;;;;5115270;27;20224;-57
2023/05/25 11:07:59;;;;;;;11.00;9.10;;;33.90;28.10;;;;;;5115366;28;20520;-57
2023/05/25 11:10:53;;;;;;;11.53;10.43;;;33.40;28.50;;;;;;5114812;28;20855;-57
2023/05/25 11:13:38;;;;;;;9.63;8.83;;;32.70;29.30;;;;;;5115204;28;20466;-57
2023/05/25 11:16:17;;;;;;;10.77;9.80;;;32.30;30.00;;;;;;5115130;28;20472;-57
2023/05/25 11:18:46;;;;;;;9.87;8.87;;;32.10;30.20;;;;;;5115145;28;20423;-57
2023/05/25 11:21:21;;;;;;;9.90;9.10;;;32.40;30.00;;;;;;5115035;28;20446;-57
2023/05/25 11:23:56;;;;;;;8.70;7.90;;;32.70;29.70;;;;;;5114916;28;20496;-57
2023/05/25 11:26:23;;;;;;;10.53;9.53;;;32.40;29.40;;;;;;5114870;28;20473;-57
2023/05/25 11:28:51;;;;;;;8.10;7.30;;;32.30;30.00;;;;;;5114886;28;20446;-57
2023/05/25 11:31:23;;;;;;;8.67;7.77;;;32.30;29.80;;;;;;5115057;28;20499;-57
2023/05/25 11:33:56;;;;;;;7.53;6.93;;;32.20;29.50;;;;;;5114884;28;20427;-57
2023/05/25 11:36:23;;;;;;;7.33;6.73;;;32.20;30.00;;;;;;5114717;28;20535;-57
2023/05/25 11:38:50;;;;;;;9.03;7.60;;;32.70;29.70;;;;;;5114723;28;20438;-57
2023/05/25 11:41:17;;;;;;;7.10;5.60;;;32.70;29.10;;;;;;5114376;28;20931;-57
2023/05/25 11:43:46;;;;;;;6.30;5.70;;;32.90;29.60;;;;;;5114514;28;20478;-57
2023/05/25 11:46:13;;;;;;;7.00;6.43;;;33.50;29.00;;;;;;5114195;28;20468;-57
2023/05/25 11:48:45;;;;;;;7.23;6.13;;;33.60;28.50;;;;;;5114607;28;20500;-57
2023/05/25 11:51:12;;;;;;;7.70;7.00;;;33.20;28.20;;;;;;5114529;28;20434;-57
2023/05/25 11:53:43;;;;;;;6.93;5.70;;;32.80;28.50;;;;;;5114091;28;20439;-57
2023/05/25 11:56:11;;;;;;;8.33;6.43;;;33.00;28.80;;;;;;5114005;28;20490;-57
2023/05/25 11:58:37;;;;;;;7.63;5.80;;;33.80;28.50;;;;;;5114345;28;20446;-57
2023/05/25 12:01:15;;;;;;;5.50;5.00;;;34.70;28.00;;;;;;5114237;28;20442;-57
2023/05/25 12:03:43;;;;;;;8.27;6.40;;;35.80;26.90;;;;;;5113883;28;20697;-57
2023/05/25 12:06:23;;;;;;;6.05;5.55;;;36.50;25.80;;;;;;5114231;28;20227;-58
2023/05/25 12:08:50;;;;;;;7.55;6.22;;;36.50;25.00;;;;;;5114336;28;20188;-58
2023/05/25 12:11:17;;;;;;;6.47;5.77;;;36.20;25.20;;;;;;5113916;28;20216;-57
2023/05/25 12:13:44;;;;;;;6.33;5.73;;;36.30;25.60;;;;;;5114093;28;20548;-58
2023/05/25 12:16:11;;;;;;;9.00;5.67;;;36.10;25.50;;;;;;5113995;28;20223;-57
2023/05/25 12:18:38;;;;;;;6.13;5.50;;;35.60;25.40;;;;;;5113723;28;20670;-57
2023/05/25 12:21:08;;;;;;;5.83;5.13;;;35.50;26.20;;;;;;5113643;28;20196;-57
2023/05/25 12:23:35;;;;;;;6.00;5.40;;;35.40;26.00;;;;;;5113922;28;20221;-55
2023/05/25 12:26:13;;;;;;;7.38;5.40;;;35.90;26.10;;;;;;5113840;28;20224;-56
2023/05/25 12:28:40;;;;;;;7.57;4.43;;;36.90;24.80;;;;;;5113990;28;20546;-56
2023/05/25 12:31:23;;;;;;;11.43;5.35;;;37.60;23.80;;;;;;5113834;28;20208;-56
2023/05/25 12:34:05;;;;;;;7.05;5.90;;;38.50;23.50;;;;;;5113918;28;20196;-56
2023/05/25 12:36:46;;;;;;;7.25;5.35;;;38.90;23.00;;;;;;5113779;28;20220;-56
2023/05/25 12:39:15;;;;;;;5.28;4.72;;;39.40;21.80;;;;;;5113916;28;20188;-56
2023/05/25 12:41:46;;;;;;;4.80;4.40;;;39.80;21.50;;;;;;5113788;28;20205;-57
2023/05/25 12:44:21;;;;;;;5.15;4.72;;;40.30;21.50;;;;;;5113356;28;20773;-56
2023/05/25 12:46:48;;;;;;;9.27;5.00;;;40.60;20.50;;;;;;5113590;28;20634;-56